KIKK

Greater Kankakee Airport

Kankakee, Illinois, USA
METAR KIKK 200635Z AUTO 21015G22KT 7SM -RA SCT017 BKN035 OVC048 16/15 A2988 RMK AO2 P0004 T01550150
Observed Flight Rules
Feb-20 @ 06:35 UTC (35 minutes ago) Visual Flight Rules
Wind Visibility Clouds Conditions
210° at 15 knots
 Gusting to 22 knots
7 miles
  • Scattered at 1,700' AGL
  • Broken at 3,500' AGL
  • Overcast at 4,800' AGL
  • Light Rain
Temperatures Readings Precipitation
Current 16°C / 61°F
Dewpoint 15°C / 59°F
Humidity 94%
Altimeter 29.88" Hg
Pressure 1012 hPa
Elevation 192
Current Rain 0.04
METAR KIKK 200635Z AUTO 21015G22KT 7SM -RA SCT017 BKN035 OVC048 16/15 A2988 RMK AO2 P0004 T01550150
Observed Flight Rules
Feb-20 @ 06:35 UTC
(35 minutes ago)
VFR
Wind Visibility
210° at 15 knots
 Gusting to 22 knots
7 miles
Clouds
  • Scattered at 1,700' AGL
  • Broken at 3,500' AGL
  • Overcast at 4,800' AGL
Conditions
  • Light Rain
Temperature Dewpoint
16°C / 61°F 15°C / 59°F
Humidity Altimeter Pressure
94% 29.88" Hg 1012 hPa
Current Rain
0.04